sensor_id;sensor_type;location;lat;lon;timestamp;P1;durP1;ratioP1;P2;durP2;ratioP2
28245;SDS011;15510;52.512;13.300;2024-03-22T00:00:10;11.60;;;8.93;;
28245;SDS011;15510;52.512;13.300;2024-03-22T00:02:39;11.37;;;8.90;;
28245;SDS011;15510;52.512;13.300;2024-03-22T00:05:10;12.57;;;8.93;;
28245;SDS011;15510;52.512;13.300;2024-03-22T00:07:41;10.83;;;8.57;;
28245;SDS011;15510;52.512;13.300;2024-03-22T00:10:07;10.43;;;8.73;;
28245;SDS011;15510;52.512;13.300;2024-03-22T00:12:39;11.20;;;9.20;;
28245;SDS011;15510;52.512;13.300;2024-03-22T00:15:11;13.27;;;9.17;;
28245;SDS011;15510;52.512;13.300;2024-03-22T00:17:48;11.43;;;8.67;;
28245;SDS011;15510;52.512;13.300;2024-03-22T00:20:19;11.37;;;8.90;;
28245;SDS011;15510;52.512;13.300;2024-03-22T00:22:45;12.00;;;8.83;;
28245;SDS011;15510;52.512;13.300;2024-03-22T00:25:17;13.60;;;9.03;;
28245;SDS011;15510;52.512;13.300;2024-03-22T00:27:54;11.10;;;8.43;;
28245;SDS011;15510;52.512;13.300;2024-03-22T00:30:23;11.10;;;8.77;;
28245;SDS011;15510;52.512;13.300;2024-03-22T00:32:52;13.33;;;8.93;;
28245;SDS011;15510;52.512;13.300;2024-03-22T00:35:20;12.90;;;9.50;;
28245;SDS011;15510;52.512;13.300;2024-03-22T00:37:49;12.60;;;9.20;;
28245;SDS011;15510;52.512;13.300;2024-03-22T00:40:15;12.67;;;9.17;;
28245;SDS011;15510;52.512;13.300;2024-03-22T00:42:46;14.37;;;9.50;;
28245;SDS011;15510;52.512;13.300;2024-03-22T00:45:19;13.50;;;10.47;;
28245;SDS011;15510;52.512;13.300;2024-03-22T00:47:50;12.43;;;9.00;;
28245;SDS011;15510;52.512;13.300;2024-03-22T00:50:21;12.87;;;9.07;;
28245;SDS011;15510;52.512;13.300;2024-03-22T00:52:50;12.60;;;8.83;;
28245;SDS011;15510;52.512;13.300;2024-03-22T00:55:18;11.67;;;9.33;;
28245;SDS011;15510;52.512;13.300;2024-03-22T00:57:47;12.73;;;8.97;;
28245;SDS011;15510;52.512;13.300;2024-03-22T01:00:14;15.87;;;9.47;;
28245;SDS011;15510;52.512;13.300;2024-03-22T01:02:41;16.50;;;10.03;;
28245;SDS011;15510;52.512;13.300;2024-03-22T01:05:09;14.57;;;10.33;;
28245;SDS011;15510;52.512;13.300;2024-03-22T01:07:35;14.07;;;10.20;;
28245;SDS011;15510;52.512;13.300;2024-03-22T01:10:04;15.07;;;10.17;;
28245;SDS011;15510;52.512;13.300;2024-03-22T01:12:45;13.83;;;9.63;;
28245;SDS011;15510;52.512;13.300;2024-03-22T01:15:21;13.87;;;9.83;;
28245;SDS011;15510;52.512;13.300;2024-03-22T01:17:53;14.37;;;10.33;;
28245;SDS011;15510;52.512;13.300;2024-03-22T01:20:22;14.80;;;10.10;;
28245;SDS011;15510;52.512;13.300;2024-03-22T01:23:09;15.93;;;10.33;;
28245;SDS011;15510;52.512;13.300;2024-03-22T01:25:41;14.63;;;10.53;;
28245;SDS011;15510;52.512;13.300;2024-03-22T01:28:09;14.07;;;10.17;;
28245;SDS011;15510;52.512;13.300;2024-03-22T01:30:49;16.23;;;11.40;;
28245;SDS011;15510;52.512;13.300;2024-03-22T01:33:17;16.33;;;10.43;;
28245;SDS011;15510;52.512;13.300;2024-03-22T01:35:46;14.97;;;10.63;;
28245;SDS011;15510;52.512;13.300;2024-03-22T01:38:22;16.90;;;11.80;;
28245;SDS011;15510;52.512;13.300;2024-03-22T01:40:55;16.20;;;10.83;;
28245;SDS011;15510;52.512;13.300;2024-03-22T01:43:21;16.87;;;11.30;;
28245;SDS011;15510;52.512;13.300;2024-03-22T01:45:47;17.10;;;11.77;;
28245;SDS011;15510;52.512;13.300;2024-03-22T01:48:15;19.13;;;11.13;;
28245;SDS011;15510;52.512;13.300;2024-03-22T01:50:41;15.10;;;10.80;;
28245;SDS011;15510;52.512;13.300;2024-03-22T01:53:10;15.60;;;10.60;;
28245;SDS011;15510;52.512;13.300;2024-03-22T01:55:36;14.43;;;10.43;;
28245;SDS011;15510;52.512;13.300;2024-03-22T01:58:05;15.03;;;11.13;;
28245;SDS011;15510;52.512;13.300;2024-03-22T02:00:41;17.57;;;11.20;;
28245;SDS011;15510;52.512;13.300;2024-03-22T02:03:11;17.93;;;10.57;;
28245;SDS011;15510;52.512;13.300;2024-03-22T02:05:46;17.77;;;11.10;;
28245;SDS011;15510;52.512;13.300;2024-03-22T02:08:15;14.80;;;10.47;;
28245;SDS011;15510;52.512;13.300;2024-03-22T02:10:44;15.30;;;10.50;;
28245;SDS011;15510;52.512;13.300;2024-03-22T02:13:11;16.50;;;10.73;;
28245;SDS011;15510;52.512;13.300;2024-03-22T02:15:44;17.40;;;10.87;;
28245;SDS011;15510;52.512;13.300;2024-03-22T02:18:15;15.17;;;10.23;;
28245;SDS011;15510;52.512;13.300;2024-03-22T02:21:05;16.47;;;10.23;;
28245;SDS011;15510;52.512;13.300;2024-03-22T02:23:37;16.87;;;10.67;;
28245;SDS011;15510;52.512;13.300;2024-03-22T02:26:06;15.40;;;10.63;;
28245;SDS011;15510;52.512;13.300;2024-03-22T02:28:35;16.13;;;10.83;;
28245;SDS011;15510;52.512;13.300;2024-03-22T02:31:01;14.83;;;9.93;;
28245;SDS011;15510;52.512;13.300;2024-03-22T02:33:28;20.40;;;11.13;;
28245;SDS011;15510;52.512;13.300;2024-03-22T02:35:54;14.93;;;10.63;;
28245;SDS011;15510;52.512;13.300;2024-03-22T02:38:23;15.87;;;10.90;;
28245;SDS011;15510;52.512;13.300;2024-03-22T02:40:52;15.63;;;10.47;;
28245;SDS011;15510;52.512;13.300;2024-03-22T02:43:18;17.27;;;10.93;;
28245;SDS011;15510;52.512;13.300;2024-03-22T02:45:47;16.73;;;10.67;;
28245;SDS011;15510;52.512;13.300;2024-03-22T02:48:13;16.63;;;10.17;;
28245;SDS011;15510;52.512;13.300;2024-03-22T02:50:39;16.00;;;10.43;;
28245;SDS011;15510;52.512;13.300;2024-03-22T02:53:13;16.93;;;10.70;;
28245;SDS011;15510;52.512;13.300;2024-03-22T02:56:02;17.43;;;10.60;;
28245;SDS011;15510;52.512;13.300;2024-03-22T02:58:28;15.83;;;10.60;;
28245;SDS011;15510;52.512;13.300;2024-03-22T03:00:53;16.67;;;10.80;;
28245;SDS011;15510;52.512;13.300;2024-03-22T03:03:22;16.20;;;9.83;;
28245;SDS011;15510;52.512;13.300;2024-03-22T03:05:55;20.03;;;10.30;;
28245;SDS011;15510;52.512;13.300;2024-03-22T03:08:27;22.07;;;11.13;;
28245;SDS011;15510;52.512;13.300;2024-03-22T03:10:55;16.47;;;9.80;;
28245;SDS011;15510;52.512;13.300;2024-03-22T03:13:21;16.60;;;9.60;;
28245;SDS011;15510;52.512;13.300;2024-03-22T03:15:55;20.50;;;11.07;;
28245;SDS011;15510;52.512;13.300;2024-03-22T03:18:21;15.80;;;10.47;;
28245;SDS011;15510;52.512;13.300;2024-03-22T03:20:47;15.77;;;10.40;;
28245;SDS011;15510;52.512;13.300;2024-03-22T03:23:18;16.23;;;10.13;;
28245;SDS011;15510;52.512;13.300;2024-03-22T03:25:45;17.07;;;10.37;;
28245;SDS011;15510;52.512;13.300;2024-03-22T03:28:20;17.13;;;10.67;;
28245;SDS011;15510;52.512;13.300;2024-03-22T03:30:51;18.33;;;10.63;;
28245;SDS011;15510;52.512;13.300;2024-03-22T03:33:20;15.23;;;9.53;;
28245;SDS011;15510;52.512;13.300;2024-03-22T03:36:09;15.50;;;10.10;;
28245;SDS011;15510;52.512;13.300;2024-03-22T03:38:38;15.53;;;10.07;;
28245;SDS011;15510;52.512;13.300;2024-03-22T03:41:12;16.40;;;10.13;;
28245;SDS011;15510;52.512;13.300;2024-03-22T03:44:04;16.93;;;10.33;;
28245;SDS011;15510;52.512;13.300;2024-03-22T03:46:35;15.00;;;9.50;;
28245;SDS011;15510;52.512;13.300;2024-03-22T03:49:09;16.03;;;9.20;;
28245;SDS011;15510;52.512;13.300;2024-03-22T03:51:40;15.13;;;9.37;;
28245;SDS011;15510;52.512;13.300;2024-03-22T03:54:10;15.40;;;8.57;;
28245;SDS011;15510;52.512;13.300;2024-03-22T03:56:37;16.67;;;9.57;;
28245;SDS011;15510;52.512;13.300;2024-03-22T03:59:11;16.27;;;9.17;;
28245;SDS011;15510;52.512;13.300;2024-03-22T04:01:39;15.43;;;10.23;;
28245;SDS011;15510;52.512;13.300;2024-03-22T04:04:12;15.03;;;9.40;;
28245;SDS011;15510;52.512;13.300;2024-03-22T04:06:38;16.80;;;10.33;;
28245;SDS011;15510;52.512;13.300;2024-03-22T04:09:04;17.90;;;9.73;;
28245;SDS011;15510;52.512;13.300;2024-03-22T04:11:30;14.63;;;9.70;;
28245;SDS011;15510;52.512;13.300;2024-03-22T04:14:00;14.27;;;9.43;;
28245;SDS011;15510;52.512;13.300;2024-03-22T04:16:28;17.57;;;9.90;;
28245;SDS011;15510;52.512;13.300;2024-03-22T04:18:57;15.47;;;9.60;;
28245;SDS011;15510;52.512;13.300;2024-03-22T04:21:23;15.90;;;10.10;;
28245;SDS011;15510;52.512;13.300;2024-03-22T04:23:49;16.10;;;9.40;;
28245;SDS011;15510;52.512;13.300;2024-03-22T04:26:17;13.40;;;9.10;;
28245;SDS011;15510;52.512;13.300;2024-03-22T04:28:43;12.80;;;9.40;;
28245;SDS011;15510;52.512;13.300;2024-03-22T04:31:10;16.20;;;8.50;;
28245;SDS011;15510;52.512;13.300;2024-03-22T04:33:39;16.07;;;9.47;;
28245;SDS011;15510;52.512;13.300;2024-03-22T04:36:07;15.37;;;9.13;;
28245;SDS011;15510;52.512;13.300;2024-03-22T04:38:36;15.67;;;8.87;;
28245;SDS011;15510;52.512;13.300;2024-03-22T04:41:05;13.63;;;9.00;;
28245;SDS011;15510;52.512;13.300;2024-03-22T04:43:31;16.73;;;10.13;;
28245;SDS011;15510;52.512;13.300;2024-03-22T04:46:04;17.27;;;10.77;;
28245;SDS011;15510;52.512;13.300;2024-03-22T04:48:32;12.00;;;8.27;;
28245;SDS011;15510;52.512;13.300;2024-03-22T04:51:05;14.53;;;8.40;;
28245;SDS011;15510;52.512;13.300;2024-03-22T04:53:31;13.30;;;8.57;;
28245;SDS011;15510;52.512;13.300;2024-03-22T04:56:04;17.97;;;9.13;;
28245;SDS011;15510;52.512;13.300;2024-03-22T04:58:33;15.77;;;8.93;;
28245;SDS011;15510;52.512;13.300;2024-03-22T05:01:04;12.03;;;8.37;;
28245;SDS011;15510;52.512;13.300;2024-03-22T05:03:33;14.13;;;8.10;;
28245;SDS011;15510;52.512;13.300;2024-03-22T05:06:06;12.60;;;8.57;;
28245;SDS011;15510;52.512;13.300;2024-03-22T05:08:32;13.37;;;7.93;;
28245;SDS011;15510;52.512;13.300;2024-03-22T05:11:03;14.47;;;9.33;;
28245;SDS011;15510;52.512;13.300;2024-03-22T05:13:32;12.73;;;8.10;;
28245;SDS011;15510;52.512;13.300;2024-03-22T05:16:01;14.17;;;9.87;;
28245;SDS011;15510;52.512;13.300;2024-03-22T05:18:36;12.67;;;8.57;;
28245;SDS011;15510;52.512;13.300;2024-03-22T05:21:01;16.63;;;8.53;;
28245;SDS011;15510;52.512;13.300;2024-03-22T05:23:35;12.70;;;8.20;;
28245;SDS011;15510;52.512;13.300;2024-03-22T05:26:01;15.17;;;8.50;;
28245;SDS011;15510;52.512;13.300;2024-03-22T05:28:27;13.03;;;8.30;;
28245;SDS011;15510;52.512;13.300;2024-03-22T05:30:52;13.63;;;8.37;;
28245;SDS011;15510;52.512;13.300;2024-03-22T05:33:18;16.10;;;8.13;;
28245;SDS011;15510;52.512;13.300;2024-03-22T05:35:46;12.97;;;8.33;;
28245;SDS011;15510;52.512;13.300;2024-03-22T05:38:12;13.80;;;8.60;;
28245;SDS011;15510;52.512;13.300;2024-03-22T05:40:38;13.27;;;8.70;;
28245;SDS011;15510;52.512;13.300;2024-03-22T05:43:04;14.37;;;8.57;;
28245;SDS011;15510;52.512;13.300;2024-03-22T05:45:30;15.07;;;8.63;;
28245;SDS011;15510;52.512;13.300;2024-03-22T05:47:56;11.07;;;7.87;;
28245;SDS011;15510;52.512;13.300;2024-03-22T05:50:22;12.77;;;8.97;;
28245;SDS011;15510;52.512;13.300;2024-03-22T05:52:47;13.83;;;8.87;;
28245;SDS011;15510;52.512;13.300;2024-03-22T05:55:13;12.93;;;8.87;;
28245;SDS011;15510;52.512;13.300;2024-03-22T05:57:39;15.90;;;8.40;;
28245;SDS011;15510;52.512;13.300;2024-03-22T06:00:05;17.40;;;8.63;;
28245;SDS011;15510;52.512;13.300;2024-03-22T06:02:34;16.07;;;8.83;;
28245;SDS011;15510;52.512;13.300;2024-03-22T06:05:00;13.47;;;8.37;;
28245;SDS011;15510;52.512;13.300;2024-03-22T06:07:37;16.20;;;9.83;;
28245;SDS011;15510;52.512;13.300;2024-03-22T06:10:10;15.10;;;9.90;;
28245;SDS011;15510;52.512;13.300;2024-03-22T06:12:36;18.20;;;9.47;;
28245;SDS011;15510;52.512;13.300;2024-03-22T06:15:02;17.07;;;9.57;;
28245;SDS011;15510;52.512;13.300;2024-03-22T06:17:32;16.17;;;9.27;;
28245;SDS011;15510;52.512;13.300;2024-03-22T06:19:59;15.83;;;9.87;;
28245;SDS011;15510;52.512;13.300;2024-03-22T06:22:25;15.97;;;8.93;;
28245;SDS011;15510;52.512;13.300;2024-03-22T06:24:51;21.40;;;9.93;;
28245;SDS011;15510;52.512;13.300;2024-03-22T06:27:18;14.10;;;9.03;;
28245;SDS011;15510;52.512;13.300;2024-03-22T06:29:44;16.20;;;10.20;;
28245;SDS011;15510;52.512;13.300;2024-03-22T06:32:10;16.80;;;9.77;;
28245;SDS011;15510;52.512;13.300;2024-03-22T06:34:35;16.17;;;9.63;;
28245;SDS011;15510;52.512;13.300;2024-03-22T06:37:02;15.87;;;10.10;;
28245;SDS011;15510;52.512;13.300;2024-03-22T06:39:27;19.10;;;10.73;;
28245;SDS011;15510;52.512;13.300;2024-03-22T06:41:55;15.30;;;9.30;;
28245;SDS011;15510;52.512;13.300;2024-03-22T06:44:24;17.57;;;9.57;;
28245;SDS011;15510;52.512;13.300;2024-03-22T06:46:51;16.47;;;9.63;;
28245;SDS011;15510;52.512;13.300;2024-03-22T06:49:17;17.93;;;10.57;;
28245;SDS011;15510;52.512;13.300;2024-03-22T06:51:53;15.67;;;9.83;;
28245;SDS011;15510;52.512;13.300;2024-03-22T06:54:19;13.57;;;9.43;;
28245;SDS011;15510;52.512;13.300;2024-03-22T06:56:44;17.93;;;10.43;;
28245;SDS011;15510;52.512;13.300;2024-03-22T06:59:13;15.83;;;10.33;;
28245;SDS011;15510;52.512;13.300;2024-03-22T07:01:39;17.77;;;10.50;;
28245;SDS011;15510;52.512;13.300;2024-03-22T07:04:05;18.10;;;11.27;;
28245;SDS011;15510;52.512;13.300;2024-03-22T07:06:31;18.83;;;9.83;;
28245;SDS011;15510;52.512;13.300;2024-03-22T07:09:00;16.53;;;10.30;;
28245;SDS011;15510;52.512;13.300;2024-03-22T07:11:26;17.67;;;10.63;;
28245;SDS011;15510;52.512;13.300;2024-03-22T07:13:55;15.57;;;11.13;;
28245;SDS011;15510;52.512;13.300;2024-03-22T07:16:23;14.80;;;9.43;;
28245;SDS011;15510;52.512;13.300;2024-03-22T07:18:48;20.67;;;10.47;;
28245;SDS011;15510;52.512;13.300;2024-03-22T07:21:15;15.53;;;10.50;;
28245;SDS011;15510;52.512;13.300;2024-03-22T07:23:41;16.57;;;11.03;;
28245;SDS011;15510;52.512;13.300;2024-03-22T07:26:07;17.10;;;10.60;;
28245;SDS011;15510;52.512;13.300;2024-03-22T07:28:33;16.40;;;10.53;;
28245;SDS011;15510;52.512;13.300;2024-03-22T07:31:01;17.57;;;10.57;;
28245;SDS011;15510;52.512;13.300;2024-03-22T07:33:27;15.37;;;11.20;;
28245;SDS011;15510;52.512;13.300;2024-03-22T07:35:53;16.43;;;10.30;;
28245;SDS011;15510;52.512;13.300;2024-03-22T07:38:20;17.47;;;11.03;;
28245;SDS011;15510;52.512;13.300;2024-03-22T07:40:45;17.53;;;11.67;;
28245;SDS011;15510;52.512;13.300;2024-03-22T07:43:11;19.20;;;11.13;;
28245;SDS011;15510;52.512;13.300;2024-03-22T07:45:41;17.60;;;10.50;;
28245;SDS011;15510;52.512;13.300;2024-03-22T07:48:07;15.97;;;11.60;;
28245;SDS011;15510;52.512;13.300;2024-03-22T07:50:33;18.00;;;11.70;;
28245;SDS011;15510;52.512;13.300;2024-03-22T07:52:59;19.20;;;11.03;;
28245;SDS011;15510;52.512;13.300;2024-03-22T07:55:25;15.87;;;10.93;;
28245;SDS011;15510;52.512;13.300;2024-03-22T07:57:54;20.07;;;11.20;;
28245;SDS011;15510;52.512;13.300;2024-03-22T08:00:20;20.33;;;11.87;;
28245;SDS011;15510;52.512;13.300;2024-03-22T08:02:46;18.30;;;11.57;;
28245;SDS011;15510;52.512;13.300;2024-03-22T08:05:11;17.10;;;11.27;;
28245;SDS011;15510;52.512;13.300;2024-03-22T08:07:40;16.87;;;11.73;;
28245;SDS011;15510;52.512;13.300;2024-03-22T08:10:08;18.43;;;11.57;;
28245;SDS011;15510;52.512;13.300;2024-03-22T08:12:35;19.30;;;11.57;;
28245;SDS011;15510;52.512;13.300;2024-03-22T08:15:01;18.80;;;11.27;;
28245;SDS011;15510;52.512;13.300;2024-03-22T08:17:30;17.90;;;11.63;;
28245;SDS011;15510;52.512;13.300;2024-03-22T08:19:56;22.50;;;11.57;;
28245;SDS011;15510;52.512;13.300;2024-03-22T08:22:22;18.77;;;11.90;;
28245;SDS011;15510;52.512;13.300;2024-03-22T08:24:48;18.63;;;12.17;;
28245;SDS011;15510;52.512;13.300;2024-03-22T08:27:13;18.13;;;11.70;;
28245;SDS011;15510;52.512;13.300;2024-03-22T08:29:41;18.20;;;11.57;;
28245;SDS011;15510;52.512;13.300;2024-03-22T08:32:10;19.73;;;11.60;;
28245;SDS011;15510;52.512;13.300;2024-03-22T08:34:38;18.20;;;11.77;;
28245;SDS011;15510;52.512;13.300;2024-03-22T08:37:08;19.63;;;11.70;;
28245;SDS011;15510;52.512;13.300;2024-03-22T08:39:36;19.50;;;12.73;;
28245;SDS011;15510;52.512;13.300;2024-03-22T08:42:02;18.30;;;11.60;;
28245;SDS011;15510;52.512;13.300;2024-03-22T08:44:31;19.73;;;12.07;;
28245;SDS011;15510;52.512;13.300;2024-03-22T08:46:59;19.90;;;12.20;;
28245;SDS011;15510;52.512;13.300;2024-03-22T08:49:26;18.27;;;11.20;;
28245;SDS011;15510;52.512;13.300;2024-03-22T08:51:51;19.87;;;12.93;;
28245;SDS011;15510;52.512;13.300;2024-03-22T08:54:20;21.93;;;12.10;;
28245;SDS011;15510;52.512;13.300;2024-03-22T08:56:48;19.03;;;12.30;;
28245;SDS011;15510;52.512;13.300;2024-03-22T08:59:14;18.47;;;11.53;;
28245;SDS011;15510;52.512;13.300;2024-03-22T09:01:43;19.20;;;11.83;;
28245;SDS011;15510;52.512;13.300;2024-03-22T09:04:08;18.17;;;11.80;;
28245;SDS011;15510;52.512;13.300;2024-03-22T09:06:34;15.70;;;10.95;;
28245;SDS011;15510;52.512;13.300;2024-03-22T09:09:03;16.25;;;11.30;;
28245;SDS011;15510;52.512;13.300;2024-03-22T09:11:29;16.50;;;12.05;;
28245;SDS011;15510;52.512;13.300;2024-03-22T09:13:55;18.77;;;10.93;;
28245;SDS011;15510;52.512;13.300;2024-03-22T09:16:21;20.75;;;11.95;;
28245;SDS011;15510;52.512;13.300;2024-03-22T09:18:48;19.40;;;10.85;;
28245;SDS011;15510;52.512;13.300;2024-03-22T09:21:14;18.45;;;12.05;;
28245;SDS011;15510;52.512;13.300;2024-03-22T09:23:39;18.42;;;11.15;;
28245;SDS011;15510;52.512;13.300;2024-03-22T09:26:05;18.17;;;10.68;;
28245;SDS011;15510;52.512;13.300;2024-03-22T09:28:33;17.70;;;11.65;;
28245;SDS011;15510;52.512;13.300;2024-03-22T09:31:08;17.73;;;11.43;;
28245;SDS011;15510;52.512;13.300;2024-03-22T09:33:34;15.57;;;10.02;;
28245;SDS011;15510;52.512;13.300;2024-03-22T09:36:00;17.60;;;11.52;;
28245;SDS011;15510;52.512;13.300;2024-03-22T09:38:29;16.63;;;10.82;;
28245;SDS011;15510;52.512;13.300;2024-03-22T09:40:55;16.42;;;10.68;;
28245;SDS011;15510;52.512;13.300;2024-03-22T09:43:21;15.82;;;11.63;;
28245;SDS011;15510;52.512;13.300;2024-03-22T09:45:48;17.27;;;11.18;;
28245;SDS011;15510;52.512;13.300;2024-03-22T09:48:18;18.90;;;11.20;;
28245;SDS011;15510;52.512;13.300;2024-03-22T09:50:49;17.23;;;11.02;;
28245;SDS011;15510;52.512;13.300;2024-03-22T09:53:17;16.23;;;10.00;;
28245;SDS011;15510;52.512;13.300;2024-03-22T09:55:44;19.80;;;10.63;;
28245;SDS011;15510;52.512;13.300;2024-03-22T09:58:12;16.70;;;10.82;;
28245;SDS011;15510;52.512;13.300;2024-03-22T10:00:40;16.48;;;10.13;;
28245;SDS011;15510;52.512;13.300;2024-03-22T10:03:05;17.90;;;11.52;;
28245;SDS011;15510;52.512;13.300;2024-03-22T10:05:36;17.60;;;11.13;;
28245;SDS011;15510;52.512;13.300;2024-03-22T10:08:05;17.55;;;11.15;;
28245;SDS011;15510;52.512;13.300;2024-03-22T10:10:43;16.65;;;10.57;;
28245;SDS011;15510;52.512;13.300;2024-03-22T10:13:09;14.25;;;10.23;;
28245;SDS011;15510;52.512;13.300;2024-03-22T10:15:35;16.80;;;10.48;;
28245;SDS011;15510;52.512;13.300;2024-03-22T10:18:03;15.15;;;10.07;;
28245;SDS011;15510;52.512;13.300;2024-03-22T10:20:29;16.05;;;9.95;;
28245;SDS011;15510;52.512;13.300;2024-03-22T10:22:55;15.40;;;10.27;;
28245;SDS011;15510;52.512;13.300;2024-03-22T10:25:29;15.13;;;9.95;;
28245;SDS011;15510;52.512;13.300;2024-03-22T10:27:58;17.58;;;11.00;;
28245;SDS011;15510;52.512;13.300;2024-03-22T10:30:24;17.27;;;10.30;;
28245;SDS011;15510;52.512;13.300;2024-03-22T10:32:51;15.73;;;10.15;;
28245;SDS011;15510;52.512;13.300;2024-03-22T10:35:17;18.40;;;9.68;;
28245;SDS011;15510;52.512;13.300;2024-03-22T10:37:44;14.25;;;9.48;;
28245;SDS011;15510;52.512;13.300;2024-03-22T10:40:10;16.48;;;10.45;;
28245;SDS011;15510;52.512;13.300;2024-03-22T10:42:36;13.52;;;9.57;;
28245;SDS011;15510;52.512;13.300;2024-03-22T10:45:10;11.93;;;8.77;;
28245;SDS011;15510;52.512;13.300;2024-03-22T10:47:38;12.60;;;9.15;;
28245;SDS011;15510;52.512;13.300;2024-03-22T10:50:05;14.27;;;9.27;;
28245;SDS011;15510;52.512;13.300;2024-03-22T10:52:38;15.38;;;9.27;;
28245;SDS011;15510;52.512;13.300;2024-03-22T10:55:07;14.63;;;9.27;;
28245;SDS011;15510;52.512;13.300;2024-03-22T10:57:37;14.60;;;8.77;;
28245;SDS011;15510;52.512;13.300;2024-03-22T11:00:08;15.05;;;8.60;;
28245;SDS011;15510;52.512;13.300;2024-03-22T11:02:38;14.98;;;9.05;;
28245;SDS011;15510;52.512;13.300;2024-03-22T11:05:15;11.70;;;8.40;;
28245;SDS011;15510;52.512;13.300;2024-03-22T11:07:43;13.02;;;8.80;;
28245;SDS011;15510;52.512;13.300;2024-03-22T11:10:12;14.13;;;9.07;;
28245;SDS011;15510;52.512;13.300;2024-03-22T11:12:42;12.43;;;8.48;;
28245;SDS011;15510;52.512;13.300;2024-03-22T11:15:10;12.88;;;8.25;;
28245;SDS011;15510;52.512;13.300;2024-03-22T11:17:37;14.50;;;8.88;;
28245;SDS011;15510;52.512;13.300;2024-03-22T11:20:06;15.00;;;8.70;;
28245;SDS011;15510;52.512;13.300;2024-03-22T11:22:33;13.13;;;8.60;;
28245;SDS011;15510;52.512;13.300;2024-03-22T11:24:59;13.10;;;8.40;;
28245;SDS011;15510;52.512;13.300;2024-03-22T11:27:25;13.95;;;8.63;;
28245;SDS011;15510;52.512;13.300;2024-03-22T11:29:54;15.18;;;9.00;;
28245;SDS011;15510;52.512;13.300;2024-03-22T11:32:21;12.25;;;8.57;;
28245;SDS011;15510;52.512;13.300;2024-03-22T11:34:51;13.68;;;9.25;;
28245;SDS011;15510;52.512;13.300;2024-03-22T11:37:17;14.27;;;8.25;;
28245;SDS011;15510;52.512;13.300;2024-03-22T11:39:42;13.20;;;9.02;;
28245;SDS011;15510;52.512;13.300;2024-03-22T11:42:08;13.95;;;9.52;;
28245;SDS011;15510;52.512;13.300;2024-03-22T11:44:41;15.18;;;9.23;;
28245;SDS011;15510;52.512;13.300;2024-03-22T11:47:07;14.63;;;9.43;;
28245;SDS011;15510;52.512;13.300;2024-03-22T11:49:33;16.38;;;8.98;;
28245;SDS011;15510;52.512;13.300;2024-03-22T11:52:03;16.52;;;9.90;;
28245;SDS011;15510;52.512;13.300;2024-03-22T11:54:29;18.00;;;11.35;;
28245;SDS011;15510;52.512;13.300;2024-03-22T11:56:56;15.60;;;10.02;;
28245;SDS011;15510;52.512;13.300;2024-03-22T11:59:30;13.85;;;8.82;;
28245;SDS011;15510;52.512;13.300;2024-03-22T12:01:56;14.75;;;9.50;;
28245;SDS011;15510;52.512;13.300;2024-03-22T12:04:22;13.82;;;8.30;;
28245;SDS011;15510;52.512;13.300;2024-03-22T12:06:55;15.38;;;9.63;;
28245;SDS011;15510;52.512;13.300;2024-03-22T12:09:24;19.73;;;10.10;;
28245;SDS011;15510;52.512;13.300;2024-03-22T12:11:54;17.23;;;10.88;;
28245;SDS011;15510;52.512;13.300;2024-03-22T12:14:23;16.10;;;9.95;;
28245;SDS011;15510;52.512;13.300;2024-03-22T12:16:52;16.10;;;10.13;;
28245;SDS011;15510;52.512;13.300;2024-03-22T12:19:18;17.33;;;10.20;;
28245;SDS011;15510;52.512;13.300;2024-03-22T12:21:44;15.38;;;10.15;;
28245;SDS011;15510;52.512;13.300;2024-03-22T12:24:13;18.63;;;12.48;;
28245;SDS011;15510;52.512;13.300;2024-03-22T12:26:40;18.33;;;10.90;;
28245;SDS011;15510;52.512;13.300;2024-03-22T12:29:05;18.98;;;12.43;;
28245;SDS011;15510;52.512;13.300;2024-03-22T12:31:37;20.52;;;12.38;;
28245;SDS011;15510;52.512;13.300;2024-03-22T12:34:03;19.63;;;12.18;;
28245;SDS011;15510;52.512;13.300;2024-03-22T12:36:29;19.40;;;12.32;;
28245;SDS011;15510;52.512;13.300;2024-03-22T12:38:58;19.80;;;11.65;;
28245;SDS011;15510;52.512;13.300;2024-03-22T12:41:24;21.92;;;12.07;;
28245;SDS011;15510;52.512;13.300;2024-03-22T12:43:51;18.88;;;11.40;;
28245;SDS011;15510;52.512;13.300;2024-03-22T12:46:16;18.40;;;11.90;;
28245;SDS011;15510;52.512;13.300;2024-03-22T12:48:42;19.85;;;11.38;;
28245;SDS011;15510;52.512;13.300;2024-03-22T12:51:08;17.63;;;10.82;;
28245;SDS011;15510;52.512;13.300;2024-03-22T12:53:37;19.40;;;11.18;;
28245;SDS011;15510;52.512;13.300;2024-03-22T12:56:03;21.15;;;11.65;;
28245;SDS011;15510;52.512;13.300;2024-03-22T12:58:37;22.15;;;12.05;;
28245;SDS011;15510;52.512;13.300;2024-03-22T13:01:04;23.30;;;12.02;;
28245;SDS011;15510;52.512;13.300;2024-03-22T13:03:34;20.85;;;11.88;;
28245;SDS011;15510;52.512;13.300;2024-03-22T13:06:00;22.05;;;12.38;;
28245;SDS011;15510;52.512;13.300;2024-03-22T13:08:28;23.80;;;12.45;;
28245;SDS011;15510;52.512;13.300;2024-03-22T13:10:55;23.25;;;13.25;;
28245;SDS011;15510;52.512;13.300;2024-03-22T13:13:21;22.67;;;13.70;;
28245;SDS011;15510;52.512;13.300;2024-03-22T13:15:47;23.93;;;12.47;;
28245;SDS011;15510;52.512;13.300;2024-03-22T13:18:13;22.45;;;12.80;;
28245;SDS011;15510;52.512;13.300;2024-03-22T13:20:39;19.38;;;10.40;;
28245;SDS011;15510;52.512;13.300;2024-03-22T13:23:08;21.73;;;10.70;;
28245;SDS011;15510;52.512;13.300;2024-03-22T13:25:36;15.32;;;9.88;;
28245;SDS011;15510;52.512;13.300;2024-03-22T13:28:03;16.95;;;8.93;;
28245;SDS011;15510;52.512;13.300;2024-03-22T13:30:30;15.40;;;10.05;;
28245;SDS011;15510;52.512;13.300;2024-03-22T13:32:56;16.52;;;9.52;;
28245;SDS011;15510;52.512;13.300;2024-03-22T13:35:29;16.58;;;9.90;;
28245;SDS011;15510;52.512;13.300;2024-03-22T13:38:01;16.45;;;10.02;;
28245;SDS011;15510;52.512;13.300;2024-03-22T13:40:27;17.30;;;8.73;;
28245;SDS011;15510;52.512;13.300;2024-03-22T13:42:53;14.23;;;8.98;;
28245;SDS011;15510;52.512;13.300;2024-03-22T13:45:19;14.30;;;8.30;;
28245;SDS011;15510;52.512;13.300;2024-03-22T13:47:47;14.32;;;7.82;;
28245;SDS011;15510;52.512;13.300;2024-03-22T13:50:16;13.50;;;7.65;;
28245;SDS011;15510;52.512;13.300;2024-03-22T13:52:51;13.15;;;7.00;;
28245;SDS011;15510;52.512;13.300;2024-03-22T13:55:16;9.50;;;5.97;;
28245;SDS011;15510;52.512;13.300;2024-03-22T13:57:42;11.40;;;7.75;;
28245;SDS011;15510;52.512;13.300;2024-03-22T14:00:12;10.52;;;6.70;;
28245;SDS011;15510;52.512;13.300;2024-03-22T14:02:53;9.18;;;6.53;;
28245;SDS011;15510;52.512;13.300;2024-03-22T14:05:32;12.15;;;6.60;;
28245;SDS011;15510;52.512;13.300;2024-03-22T14:08:24;10.70;;;6.78;;
28245;SDS011;15510;52.512;13.300;2024-03-22T14:10:50;13.23;;;6.95;;
28245;SDS011;15510;52.512;13.300;2024-03-22T14:13:38;11.93;;;7.40;;
28245;SDS011;15510;52.512;13.300;2024-03-22T14:16:05;12.95;;;7.97;;
28245;SDS011;15510;52.512;13.300;2024-03-22T14:18:36;13.13;;;7.75;;
28245;SDS011;15510;52.512;13.300;2024-03-22T14:21:08;12.73;;;8.20;;